createdAt,value
2022-11-14T00:01:11.711Z,30.27
2022-11-14T00:03:38.782Z,33.10
2022-11-14T00:06:07.335Z,35.47
2022-11-14T00:08:35.100Z,33.23
2022-11-14T00:11:02.380Z,32.33
2022-11-14T00:13:29.343Z,27.50
2022-11-14T00:15:56.280Z,22.33
2022-11-14T00:18:23.905Z,22.17
2022-11-14T00:20:52.742Z,23.53
2022-11-14T00:23:21.256Z,22.83
2022-11-14T00:25:48.417Z,29.20
2022-11-14T00:28:15.470Z,28.47
2022-11-14T00:30:42.419Z,24.53
2022-11-14T00:33:09.317Z,29.67
2022-11-14T00:35:36.241Z,29.03
2022-11-14T00:38:03.110Z,26.37
2022-11-14T00:40:29.974Z,30.87
2022-11-14T00:42:56.865Z,27.87
2022-11-14T00:45:24.549Z,31.10
2022-11-14T00:47:51.501Z,27.40
2022-11-14T00:50:18.496Z,29.77
2022-11-14T00:52:45.369Z,32.17
2022-11-14T00:55:12.265Z,38.27
2022-11-14T00:57:39.164Z,50.40
2022-11-14T01:00:09.126Z,49.83
2022-11-14T01:02:36.199Z,63.10
2022-11-14T01:05:03.164Z,52.00
2022-11-14T01:07:30.067Z,271.13
2022-11-14T01:09:57.038Z,107.17
2022-11-14T01:12:24.116Z,55.00
2022-11-14T01:14:50.991Z,50.00
2022-11-14T01:17:17.906Z,62.63
2022-11-14T01:19:44.804Z,62.97
2022-11-14T01:22:11.720Z,65.87
2022-11-14T01:24:38.662Z,41.70
2022-11-14T01:27:05.561Z,55.50
2022-11-14T01:29:32.412Z,45.97
2022-11-14T01:31:59.310Z,43.67
2022-11-14T01:34:26.657Z,40.17
2022-11-14T01:36:53.611Z,51.87
2022-11-14T01:39:20.505Z,57.17
2022-11-14T01:41:47.486Z,44.97
2022-11-14T01:44:40.481Z,56.70
2022-11-14T01:47:07.400Z,84.83
2022-11-14T01:49:42.087Z,48.47
2022-11-14T01:52:22.694Z,84.30
2022-11-14T01:54:56.071Z,45.40
2022-11-14T01:57:33.703Z,42.47
2022-11-14T02:00:08.105Z,36.63
2022-11-14T02:02:35.775Z,40.80
2022-11-14T02:05:13.354Z,34.30
2022-11-14T02:07:41.646Z,27.70
2022-11-14T02:10:17.541Z,35.83
2022-11-14T02:12:45.625Z,30.50
2022-11-14T02:15:13.561Z,30.63
2022-11-14T02:17:42.671Z,31.33
2022-11-14T02:20:12.689Z,58.37
2022-11-14T02:22:42.066Z,28.43
2022-11-14T02:25:10.976Z,27.73
2022-11-14T02:27:39.550Z,29.70
2022-11-14T02:30:17.740Z,31.30
2022-11-14T02:33:09.356Z,32.13
2022-11-14T02:35:31.734Z,32.13
2022-11-14T02:37:58.644Z,30.27
2022-11-14T02:40:25.574Z,34.77
2022-11-14T02:42:52.466Z,33.53
2022-11-14T02:45:20.867Z,30.63
2022-11-14T02:47:47.909Z,32.07
2022-11-14T02:50:15.234Z,30.60
2022-11-14T02:52:42.135Z,35.77
2022-11-14T02:55:10.076Z,31.77
2022-11-14T02:57:37.087Z,41.17
2022-11-14T03:00:09.964Z,44.00
2022-11-14T03:02:40.398Z,33.10
2022-11-14T03:05:07.920Z,55.97
2022-11-14T03:07:34.880Z,35.10
2022-11-14T03:10:02.204Z,59.73
2022-11-14T03:12:29.147Z,69.07
2022-11-14T03:14:56.070Z,54.70
2022-11-14T03:17:24.747Z,78.70
2022-11-14T03:19:51.692Z,34.43
2022-11-14T03:22:18.590Z,53.13
2022-11-14T03:24:45.491Z,49.97
2022-11-14T03:27:12.367Z,54.40
2022-11-14T03:29:39.254Z,34.60
2022-11-14T03:32:06.177Z,81.53
2022-11-14T03:34:33.601Z,57.40
2022-11-14T03:37:00.616Z,89.70
2022-11-14T03:39:28.233Z,108.33
2022-11-14T03:41:55.111Z,111.80
2022-11-14T03:44:22.336Z,110.40
2022-11-14T03:46:49.269Z,65.77
2022-11-14T03:49:16.202Z,55.50
2022-11-14T03:51:43.123Z,179.60
2022-11-14T03:54:10.053Z,44.00
2022-11-14T03:56:36.989Z,34.20
2022-11-14T03:59:03.974Z,50.70
2022-11-14T04:01:30.944Z,47.67
2022-11-14T04:03:57.924Z,40.03
2022-11-14T04:06:24.815Z,29.40
2022-11-14T04:08:56.663Z,86.67
2022-11-14T04:11:23.631Z,32.33
2022-11-14T04:13:50.525Z,31.10
2022-11-14T04:16:17.437Z,37.10
2022-11-14T04:18:44.351Z,31.17
2022-11-14T04:21:11.233Z,33.00
2022-11-14T04:23:38.141Z,28.37
2022-11-14T04:26:05.210Z,29.93
2022-11-14T04:28:32.408Z,31.03
2022-11-14T04:31:00.406Z,32.83
2022-11-14T04:33:27.653Z,30.27
2022-11-14T04:35:54.555Z,37.90
2022-11-14T04:38:21.467Z,30.43
2022-11-14T04:40:54.368Z,24.57
2022-11-14T04:43:21.565Z,25.73
2022-11-14T04:45:48.725Z,35.20
2022-11-14T04:48:15.665Z,31.50
2022-11-14T04:50:42.761Z,42.53
2022-11-14T04:53:09.681Z,42.60
2022-11-14T04:55:36.633Z,29.73
2022-11-14T04:58:03.726Z,45.80
2022-11-14T05:00:30.643Z,31.33
2022-11-14T05:03:00.170Z,28.03
2022-11-14T05:05:27.286Z,41.17
2022-11-14T05:07:55.217Z,46.20
2022-11-14T05:10:22.208Z,36.87
2022-11-14T05:12:49.151Z,30.47
2022-11-14T05:15:16.111Z,72.23
2022-11-14T05:17:42.978Z,33.20
2022-11-14T05:20:10.852Z,36.63
2022-11-14T05:22:37.839Z,32.97
2022-11-14T05:25:06.494Z,34.23
2022-11-14T05:27:33.494Z,29.70
2022-11-14T05:30:00.540Z,34.60
2022-11-14T05:32:27.407Z,31.87
2022-11-14T05:34:54.289Z,29.20
2022-11-14T05:37:21.223Z,29.13
2022-11-14T05:39:48.126Z,28.43
2022-11-14T05:42:15.146Z,29.23
2022-11-14T05:44:42.044Z,33.20
2022-11-14T05:47:08.955Z,27.23
2022-11-14T05:49:35.840Z,28.13
2022-11-14T05:52:02.756Z,27.73
2022-11-14T05:54:29.660Z,26.70
2022-11-14T05:56:56.548Z,28.00
2022-11-14T05:59:23.496Z,27.40
2022-11-14T06:01:50.383Z,26.73
2022-11-14T06:04:17.259Z,25.00
2022-11-14T06:06:44.220Z,25.77
2022-11-14T06:09:11.510Z,26.33
2022-11-14T06:11:38.573Z,30.03
2022-11-14T06:14:10.455Z,29.20
2022-11-14T06:16:37.958Z,27.43
2022-11-14T06:19:05.410Z,25.87
2022-11-14T06:21:32.306Z,24.80
2022-11-14T06:23:59.245Z,24.80
2022-11-14T06:26:30.396Z,25.03
2022-11-14T06:28:58.886Z,22.97
2022-11-14T06:31:26.532Z,24.23
2022-11-14T06:33:53.709Z,24.03
2022-11-14T06:36:20.899Z,23.10
2022-11-14T06:38:47.793Z,24.70
2022-11-14T06:41:20.934Z,28.57
2022-11-14T06:43:51.204Z,25.63
2022-11-14T06:46:20.695Z,24.87
2022-11-14T06:48:49.514Z,27.33
2022-11-14T06:51:17.999Z,27.40
2022-11-14T06:53:45.734Z,30.37
2022-11-14T06:56:16.568Z,33.33
2022-11-14T06:58:47.979Z,28.80
2022-11-14T07:01:21.858Z,35.33
2022-11-14T07:03:49.872Z,38.77
2022-11-14T07:06:21.671Z,40.40
2022-11-14T07:08:48.860Z,28.13
2022-11-14T07:11:23.017Z,25.07
2022-11-14T07:14:01.329Z,23.37
2022-11-14T07:16:37.475Z,26.23
2022-11-14T07:19:09.097Z,25.57
2022-11-14T07:21:36.678Z,29.03
2022-11-14T07:24:03.956Z,27.33
2022-11-14T07:26:30.905Z,32.57
2022-11-14T07:29:02.140Z,30.37
2022-11-14T07:31:29.839Z,30.63
2022-11-14T07:33:56.802Z,26.90
2022-11-14T07:36:24.279Z,30.53
2022-11-14T07:38:51.312Z,33.33
2022-11-14T07:41:18.418Z,34.27
2022-11-14T07:43:45.751Z,36.77
2022-11-14T07:46:15.682Z,35.33
2022-11-14T07:48:43.766Z,38.30
2022-11-14T07:51:17.109Z,35.13
2022-11-14T07:53:44.512Z,31.03
2022-11-14T07:56:11.690Z,25.60
2022-11-14T07:58:40.661Z,32.00
2022-11-14T08:01:10.723Z,27.70
2022-11-14T08:03:42.261Z,27.63
2022-11-14T08:06:15.104Z,25.53
2022-11-14T08:08:42.178Z,24.07
2022-11-14T08:11:09.622Z,24.77
2022-11-14T08:13:36.519Z,20.90
2022-11-14T08:16:12.784Z,23.20
2022-11-14T08:18:41.405Z,21.90
2022-11-14T08:21:08.555Z,19.10
2022-11-14T08:23:35.519Z,18.90
2022-11-14T08:26:02.462Z,18.63
2022-11-14T08:28:29.941Z,17.27
2022-11-14T08:31:04.726Z,21.00
2022-11-14T08:33:32.355Z,20.37
2022-11-14T08:36:03.334Z,19.67
2022-11-14T08:38:32.632Z,20.77
2022-11-14T08:41:04.512Z,21.63
2022-11-14T08:43:32.550Z,20.10
2022-11-14T08:46:05.153Z,18.93
2022-11-14T08:48:33.255Z,20.90
2022-11-14T08:51:07.469Z,20.57
2022-11-14T08:53:35.286Z,20.50
2022-11-14T08:56:02.923Z,27.30
2022-11-14T08:58:32.342Z,27.27
2022-11-14T09:01:05.254Z,26.43
2022-11-14T09:03:33.030Z,28.67
2022-11-14T09:06:00.737Z,26.83
2022-11-14T09:08:29.796Z,26.37
2022-11-14T09:11:05.133Z,30.03
2022-11-14T09:13:34.917Z,25.70
2022-11-14T09:16:02.423Z,28.10
2022-11-14T09:18:31.183Z,27.03
2022-11-14T09:21:07.818Z,26.97
2022-11-14T09:23:35.294Z,25.77
2022-11-14T09:26:08.199Z,28.63
2022-11-14T09:28:35.529Z,31.03
2022-11-14T09:31:12.575Z,31.37
2022-11-14T09:33:39.731Z,34.27
2022-11-14T09:36:11.326Z,34.87
2022-11-14T09:38:38.843Z,35.37
2022-11-14T09:41:31.029Z,37.23
2022-11-14T09:44:41.035Z,35.97
2022-11-14T09:47:37.026Z,37.13
2022-11-14T09:50:18.728Z,36.60
2022-11-14T09:52:55.128Z,34.33
2022-11-14T09:55:32.228Z,36.60
2022-11-14T09:58:03.859Z,37.33
2022-11-14T10:00:54.501Z,36.47
2022-11-14T10:03:46.383Z,38.37
2022-11-14T10:06:31.188Z,43.17
2022-11-14T10:09:49.568Z,41.07
2022-11-14T10:12:55.711Z,41.50
2022-11-14T10:15:34.056Z,41.50
2022-11-14T10:18:19.638Z,43.17
2022-11-14T10:20:58.604Z,41.23
2022-11-14T10:24:26.556Z,36.97
2022-11-14T10:27:04.027Z,37.07
2022-11-14T10:29:42.144Z,33.57
2022-11-14T10:32:50.862Z,36.47
2022-11-14T10:35:23.900Z,31.37
2022-11-14T10:38:18.428Z,37.13
2022-11-14T10:40:51.078Z,29.97
2022-11-14T10:43:37.114Z,34.07
2022-11-14T10:46:31.213Z,33.90
2022-11-14T10:49:00.487Z,32.90
2022-11-14T10:51:36.672Z,35.70
2022-11-14T10:54:31.306Z,32.40
2022-11-14T10:56:58.926Z,30.90
2022-11-14T10:59:27.727Z,32.53
2022-11-14T11:01:58.024Z,37.97
2022-11-14T11:04:27.534Z,33.27
2022-11-14T11:07:39.042Z,33.80
2022-11-14T11:10:25.785Z,31.27
2022-11-14T11:12:55.099Z,32.53
2022-11-14T11:15:31.604Z,34.07
2022-11-14T11:18:33.497Z,33.17
2022-11-14T11:21:10.405Z,34.10
2022-11-14T11:23:53.207Z,32.90
2022-11-14T11:26:28.606Z,30.63
2022-11-14T11:29:10.918Z,33.00
2022-11-14T11:31:59.000Z,34.27
2022-11-14T11:34:28.837Z,34.37
2022-11-14T11:37:18.705Z,37.00
2022-11-14T11:39:54.165Z,37.23
2022-11-14T11:45:26.149Z,31.93
2022-11-14T11:48:09.941Z,42.77
2022-11-14T11:50:37.108Z,40.83
2022-11-14T11:53:29.479Z,38.87
2022-11-14T11:56:13.795Z,37.37
2022-11-14T11:58:49.911Z,40.87
2022-11-14T12:01:17.442Z,39.60
2022-11-14T12:03:51.007Z,38.80
2022-11-14T12:06:27.336Z,39.37
2022-11-14T12:09:21.922Z,39.33
2022-11-14T12:12:39.616Z,44.87
2022-11-14T12:15:44.589Z,40.07
2022-11-14T12:18:53.684Z,42.57
2022-11-14T12:21:45.353Z,43.33
2022-11-14T12:25:01.364Z,40.10
2022-11-14T12:28:17.225Z,40.20
2022-11-14T12:30:50.998Z,37.93
2022-11-14T12:33:34.563Z,42.70
2022-11-14T12:36:10.104Z,42.17
2022-11-14T12:38:51.292Z,39.47
2022-11-14T12:41:34.938Z,42.57
2022-11-14T12:44:26.849Z,44.97
2022-11-14T12:47:05.680Z,44.87
2022-11-14T12:49:47.595Z,49.17
2022-11-14T12:52:48.775Z,53.63
2022-11-14T12:55:24.544Z,54.13
2022-11-14T12:58:12.752Z,56.43
2022-11-14T13:00:45.816Z,60.77
2022-11-14T13:03:53.543Z,51.30
2022-11-14T13:06:34.603Z,48.67
2022-11-14T13:09:34.145Z,52.07
2022-11-14T13:12:53.128Z,50.03
2022-11-14T13:15:50.904Z,47.67
2022-11-14T13:18:41.637Z,49.83
2022-11-14T13:21:45.677Z,45.50
2022-11-14T13:24:18.870Z,44.03
2022-11-14T13:26:51.998Z,47.30
2022-11-14T13:29:40.591Z,46.10
2022-11-14T13:32:11.821Z,51.37
2022-11-14T13:34:59.768Z,79.83
2022-11-14T13:38:00.442Z,70.80
2022-11-14T13:41:27.268Z,48.80
2022-11-14T13:44:15.312Z,45.03
2022-11-14T13:46:54.846Z,41.70
2022-11-14T13:50:08.111Z,50.77
2022-11-14T13:52:43.581Z,39.53
2022-11-14T13:55:38.830Z,38.67
2022-11-14T13:58:38.997Z,34.37
2022-11-14T14:01:41.499Z,37.93
2022-11-14T14:04:58.703Z,39.83
2022-11-14T14:07:49.380Z,44.53
2022-11-14T14:10:50.367Z,39.77
2022-11-14T14:13:54.013Z,40.33
2022-11-14T14:16:46.848Z,37.27
2022-11-14T14:19:29.588Z,39.23
2022-11-14T14:22:18.855Z,34.83
2022-11-14T14:25:17.320Z,36.27
2022-11-14T14:28:40.482Z,38.30
2022-11-14T14:31:07.300Z,34.40
2022-11-14T14:33:46.725Z,34.33
2022-11-14T14:36:25.756Z,36.00
2022-11-14T14:39:18.417Z,34.40
2022-11-14T14:41:46.212Z,34.43
2022-11-14T14:44:37.890Z,35.33
2022-11-14T14:47:33.248Z,37.57
2022-11-14T14:50:13.299Z,36.37
2022-11-14T14:52:40.220Z,37.83
2022-11-14T14:55:28.140Z,39.77
2022-11-14T14:57:55.197Z,38.47
2022-11-14T15:00:26.634Z,37.83
2022-11-14T15:02:57.358Z,37.47
2022-11-14T15:05:29.712Z,37.60
2022-11-14T15:08:00.741Z,35.63
2022-11-14T15:10:30.371Z,41.93
2022-11-14T15:12:58.365Z,39.17
2022-11-14T15:15:27.628Z,39.23
2022-11-14T15:17:56.189Z,38.83
2022-11-14T15:20:29.511Z,39.80
2022-11-14T15:23:14.382Z,38.13
2022-11-14T15:25:42.749Z,35.23
2022-11-14T15:28:17.411Z,36.57
2022-11-14T15:30:59.129Z,40.87
2022-11-14T15:33:35.203Z,43.37
2022-11-14T15:36:12.350Z,45.00
2022-11-14T15:38:46.422Z,51.27
2022-11-14T15:41:27.915Z,45.27
2022-11-14T15:44:01.813Z,49.00
2022-11-14T15:46:35.816Z,44.33
2022-11-14T15:49:14.476Z,43.70
2022-11-14T15:51:47.679Z,45.40
2022-11-14T15:54:33.476Z,40.63
2022-11-14T15:57:14.812Z,40.50
2022-11-14T15:59:42.192Z,38.33
2022-11-14T16:02:29.879Z,41.07
2022-11-14T16:04:59.130Z,40.37
2022-11-14T16:07:26.377Z,37.90
2022-11-14T16:09:53.393Z,42.23
2022-11-14T16:12:20.311Z,39.20
2022-11-14T16:14:48.422Z,37.93
2022-11-14T16:17:17.968Z,44.57
2022-11-14T16:19:45.042Z,40.13
2022-11-14T16:22:18.322Z,42.30
2022-11-14T16:24:45.326Z,45.17
2022-11-14T16:27:12.201Z,45.07
2022-11-14T16:29:39.141Z,42.83
2022-11-14T16:32:06.053Z,41.77
2022-11-14T16:34:32.960Z,48.77
2022-11-14T16:37:03.299Z,47.73
2022-11-14T16:39:30.324Z,48.30
2022-11-14T16:42:04.716Z,49.93
2022-11-14T16:44:37.239Z,41.03
2022-11-14T16:47:07.226Z,48.27
2022-11-14T16:49:34.118Z,46.23
2022-11-14T16:52:05.539Z,50.37
2022-11-14T16:54:33.503Z,48.07
2022-11-14T16:57:00.435Z,50.20
2022-11-14T16:59:27.385Z,49.97
2022-11-14T17:01:54.385Z,53.43
2022-11-14T17:04:21.477Z,51.50
2022-11-14T17:06:48.769Z,53.10
2022-11-14T17:09:15.881Z,58.07
2022-11-14T17:11:44.648Z,53.13
2022-11-14T17:14:12.207Z,63.73
2022-11-14T17:16:39.260Z,66.03
2022-11-14T17:19:06.526Z,62.50
2022-11-14T17:21:33.526Z,69.60
2022-11-14T17:24:01.655Z,67.80
2022-11-14T17:26:29.503Z,73.90
2022-11-14T17:28:56.899Z,75.13
2022-11-14T17:31:25.041Z,76.80
2022-11-14T17:33:54.218Z,78.67
2022-11-14T17:36:23.098Z,84.53
2022-11-14T17:38:50.357Z,88.33
2022-11-14T17:41:18.184Z,88.97
2022-11-14T17:43:45.471Z,91.03
2022-11-14T17:46:15.932Z,90.10
2022-11-14T17:48:44.854Z,88.20
2022-11-14T17:51:14.923Z,94.13
2022-11-14T17:53:42.601Z,86.60
2022-11-14T17:56:21.662Z,88.17
2022-11-14T17:58:51.740Z,84.87
2022-11-14T18:01:23.247Z,80.70
2022-11-14T18:03:50.587Z,80.03
2022-11-14T18:06:20.449Z,74.17
2022-11-14T18:08:49.188Z,75.03
2022-11-14T18:11:17.883Z,76.50
2022-11-14T18:13:45.106Z,72.77
2022-11-14T18:16:18.367Z,71.30
2022-11-14T18:18:45.696Z,76.43
2022-11-14T18:21:19.347Z,74.33
2022-11-14T18:23:58.605Z,68.77
2022-11-14T18:26:28.762Z,70.07
2022-11-14T18:29:01.162Z,67.43
2022-11-14T18:31:28.958Z,63.50
2022-11-14T18:33:56.603Z,64.97
2022-11-14T18:36:24.187Z,60.43
2022-11-14T18:38:51.416Z,60.47
2022-11-14T18:41:23.800Z,65.27
2022-11-14T18:43:55.223Z,62.47
2022-11-14T18:46:24.265Z,65.23
2022-11-14T18:48:59.791Z,62.30
2022-11-14T18:51:30.930Z,67.13
2022-11-14T18:53:59.324Z,60.77
2022-11-14T18:56:26.705Z,57.80
2022-11-14T18:58:57.392Z,70.43
2022-11-14T19:01:29.245Z,63.03
2022-11-14T19:04:03.870Z,62.17
2022-11-14T19:06:32.605Z,58.73
2022-11-14T19:09:11.156Z,63.13
2022-11-14T19:11:57.373Z,62.67
2022-11-14T19:14:24.511Z,55.93
2022-11-14T19:16:51.376Z,62.70
2022-11-14T19:19:18.304Z,63.57
2022-11-14T19:21:50.270Z,65.60
2022-11-14T19:24:17.843Z,59.07
2022-11-14T19:26:45.075Z,67.87
2022-11-14T19:29:14.997Z,66.07
2022-11-14T19:31:42.921Z,62.50
2022-11-14T19:34:10.255Z,68.97
2022-11-14T19:36:58.862Z,68.77
2022-11-14T19:39:25.784Z,65.03
2022-11-14T19:41:52.720Z,74.30
2022-11-14T19:44:19.820Z,73.87
2022-11-14T19:46:48.105Z,72.43
2022-11-14T19:49:15.770Z,81.33
2022-11-14T19:51:42.792Z,75.37
2022-11-14T19:54:11.077Z,80.47
2022-11-14T19:56:38.391Z,88.57
2022-11-14T19:59:09.657Z,77.43
2022-11-14T20:01:42.125Z,80.27
2022-11-14T20:04:13.315Z,79.17
2022-11-14T20:06:41.664Z,85.57
2022-11-14T20:09:10.841Z,89.93
2022-11-14T20:11:38.169Z,79.53
2022-11-14T20:14:05.800Z,79.13
2022-11-14T20:16:35.807Z,83.93
2022-11-14T20:19:06.019Z,76.90
2022-11-14T20:21:34.910Z,79.20
2022-11-14T20:24:02.042Z,81.67
2022-11-14T20:26:29.014Z,78.23
2022-11-14T20:28:55.995Z,83.50
2022-11-14T20:31:29.832Z,79.67
2022-11-14T20:33:57.187Z,76.87
2022-11-14T20:36:29.453Z,77.03
2022-11-14T20:39:06.275Z,74.23
2022-11-14T20:41:34.010Z,79.87
2022-11-14T20:44:03.432Z,74.67
2022-11-14T20:46:30.415Z,69.67
2022-11-14T20:48:57.428Z,71.30
2022-11-14T20:51:25.795Z,68.97
2022-11-14T20:53:55.009Z,64.33
2022-11-14T20:56:23.411Z,71.57
2022-11-14T20:58:54.656Z,71.23
2022-11-14T21:01:22.005Z,64.57
2022-11-14T21:03:49.155Z,74.97
2022-11-14T21:06:17.263Z,74.67
2022-11-14T21:08:44.385Z,71.70
2022-11-14T21:11:18.272Z,67.60
2022-11-14T21:13:58.540Z,74.13
2022-11-14T21:16:33.072Z,70.60
2022-11-14T21:19:01.242Z,72.30
2022-11-14T21:21:30.443Z,69.43
2022-11-14T21:23:58.053Z,78.03
2022-11-14T21:26:33.564Z,67.67
2022-11-14T21:29:11.109Z,72.20
2022-11-14T21:31:44.579Z,67.90
2022-11-14T21:34:18.028Z,67.57
2022-11-14T21:36:46.755Z,61.87
2022-11-14T21:39:16.434Z,64.07
2022-11-14T21:41:45.715Z,61.13
2022-11-14T21:44:16.648Z,61.33
2022-11-14T21:46:46.392Z,59.47
2022-11-14T21:49:13.311Z,58.57
2022-11-14T21:51:40.227Z,65.47
2022-11-14T21:54:07.409Z,60.13
2022-11-14T21:56:37.173Z,59.30
2022-11-14T21:59:16.049Z,58.83
2022-11-14T22:02:05.362Z,56.60
2022-11-14T22:04:33.414Z,58.10
2022-11-14T22:07:03.739Z,58.57
2022-11-14T22:09:31.371Z,61.77
2022-11-14T22:11:59.280Z,53.27
2022-11-14T22:14:26.304Z,53.20
2022-11-14T22:16:53.202Z,54.27
2022-11-14T22:19:20.232Z,55.53
2022-11-14T22:21:47.158Z,52.87
2022-11-14T22:24:14.042Z,51.43
2022-11-14T22:26:41.427Z,47.63
2022-11-14T22:29:09.180Z,53.33
2022-11-14T22:31:37.895Z,51.80
2022-11-14T22:34:05.342Z,50.33
2022-11-14T22:36:33.308Z,51.67
2022-11-14T22:39:00.209Z,53.87
2022-11-14T22:41:32.733Z,49.20
2022-11-14T22:44:01.337Z,53.80
2022-11-14T22:46:29.913Z,52.17
2022-11-14T22:48:58.286Z,49.20
2022-11-14T22:51:27.641Z,52.30
2022-11-14T22:53:57.499Z,46.63
2022-11-14T22:56:28.561Z,49.23
2022-11-14T22:58:56.299Z,51.03
2022-11-14T23:01:31.136Z,46.70
2022-11-14T23:04:02.010Z,45.40
2022-11-14T23:06:31.295Z,42.47
2022-11-14T23:08:58.829Z,45.40
2022-11-14T23:11:30.222Z,42.60
2022-11-14T23:13:59.408Z,42.40
2022-11-14T23:16:30.115Z,38.57
2022-11-14T23:19:00.240Z,38.03
2022-11-14T23:21:31.602Z,38.93
2022-11-14T23:24:03.476Z,33.90
2022-11-14T23:26:32.563Z,34.33
2022-11-14T23:29:00.104Z,31.17
2022-11-14T23:31:27.251Z,31.00
2022-11-14T23:33:56.044Z,36.77
2022-11-14T23:36:22.981Z,31.80
2022-11-14T23:38:53.598Z,28.93
2022-11-14T23:41:25.396Z,29.03
2022-11-14T23:43:52.495Z,32.47
2022-11-14T23:46:19.500Z,31.80
2022-11-14T23:48:46.412Z,26.13
2022-11-14T23:51:13.901Z,26.90
2022-11-14T23:53:41.659Z,30.13
2022-11-14T23:56:13.387Z,34.67
2022-11-14T23:58:41.598Z,28.93
